Terminal Aerodrome Forecast
Issued by NWS Omaha/Valley, NE

Home | Current Version | Previous Version | Text Only | Print | Product List | Glossary On
Versions: 1 2 3 4 5 6 7 8 9 10 11 12 13 14 15 16 17 18
000
FTUS43 KOAX 310520
TAFOFK
TAF
KOFK 310520Z 3106/0106 14009KT P6SM BKN060
     FM311000 14009KT 6SM -SHRA BR OVC050
      TEMPO 3111/3115 3SM TSRA BR OVC040CB
     FM311700 14013G20KT P6SM BKN050
     FM010100 12009KT P6SM BKN120=

USA.gov is the U.S. government's official web portal to all federal, state and local government web resources and services.